Cavan, Ireland
Current Conditions -  °F | °C
As of 4:30 PM on Sunday 23 Nov 2014 (Local Time) from EISG Reporting Station
Clear Clear  
Wind Chill: 40°   Ceiling: Unl
Heat Index: 45°   Visibility: 4mi
Dew Point: 37°   Wind: 8mph
Humidity: 76%   Direction: 230°SW
Pressure: 30.09"   Gusts: NA
Location:  54°N, 7.37°W
Report Text: EISG 231630Z 23007KT 6000 NSC 07/03 Q1019
Loading
Personal Weather Stations






























Interactive Weather Map New forecast layout! Learn more

10-Day Weather Forecast

Advertisements
Track Severe Weather on mobile